Time;durP1;ratioP1;P1;durP2;ratioP2;P2;SDS_P1;SDS_P2;PMS_P1;PMS_P2;Temp;Humidity;BMP_temperature;BMP_pressure;BME280_temperature;BME280_humidity;BME280_pressure;Samples;Min_cycle;Max_cycle;Signal;HPM_P1;HPM_P2
2024/01/18 00:02:17;;;;;;;29.10;14.95;;;;;;;-0.74;100.00;99168.81;4866967;29;20065;-74
2024/01/18 00:04:42;;;;;;;26.33;13.80;;;;;;;-0.74;100.00;99168.81;4863844;29;20017;-74
2024/01/18 00:07:07;;;;;;;29.77;14.70;;;;;;;-0.73;100.00;99178.44;4864092;29;20037;-74
2024/01/18 00:09:33;;;;;;;25.73;13.77;;;;;;;-0.73;100.00;99183.72;4862934;29;20386;-73
2024/01/18 00:11:58;;;;;;;29.00;13.40;;;;;;;-0.69;99.87;99188.84;4849794;29;20049;-73
2024/01/18 00:14:23;;;;;;;28.95;14.30;;;;;;;-0.67;100.00;99197.50;4864825;29;20288;-73
2024/01/18 00:16:48;;;;;;;25.77;14.27;;;;;;;-0.67;100.00;99194.88;4854328;29;20086;-70
2024/01/18 00:19:14;;;;;;;28.45;13.55;;;;;;;-0.68;100.00;99193.19;4849762;29;20081;-70
2024/01/18 00:21:41;;;;;;;31.15;14.45;;;;;;;-0.66;100.00;99212.41;4852815;29;20356;-70
2024/01/18 00:24:07;;;;;;;27.85;12.60;;;;;;;-0.67;100.00;99214.22;4849406;29;20450;-71
2024/01/18 00:26:32;;;;;;;30.77;14.43;;;;;;;-0.69;100.00;99212.59;4838377;29;20036;-70
2024/01/18 00:29:00;;;;;;;27.17;15.80;;;;;;;-0.69;100.00;99210.78;4832830;29;20127;-70
2024/01/18 00:31:25;;;;;;;27.15;13.57;;;;;;;-0.67;100.00;99208.06;4851790;29;20085;-72
2024/01/18 00:33:52;;;;;;;28.92;15.35;;;;;;;-0.64;100.00;99210.56;4837697;29;20049;-70
2024/01/18 00:36:18;;;;;;;29.98;14.65;;;;;;;-0.65;100.00;99214.97;4837131;29;20124;-71
2024/01/18 00:38:43;;;;;;;27.52;14.68;;;;;;;-0.65;100.00;99211.50;4853978;29;20109;-70
2024/01/18 00:41:09;;;;;;;27.15;14.20;;;;;;;-0.68;100.00;99216.94;4837516;29;20029;-70
2024/01/18 00:43:34;;;;;;;26.40;14.10;;;;;;;-0.70;100.00;99219.66;4854064;29;20494;-70
2024/01/18 00:46:04;;;;;;;29.67;14.63;;;;;;;-0.69;100.00;99215.22;4841131;29;20128;-70
2024/01/18 00:48:29;;;;;;;30.27;14.35;;;;;;;-0.72;100.00;99217.09;4850311;29;20359;-70
2024/01/18 00:50:55;;;;;;;31.02;13.95;;;;;;;-0.71;100.00;99218.78;4838355;29;20040;-71
2024/01/18 00:53:21;;;;;;;27.52;14.45;;;;;;;-0.71;100.00;99231.97;4847893;29;20102;-70
2024/01/18 00:55:46;;;;;;;28.33;14.52;;;;;;;-0.74;100.00;99233.94;4853866;29;20054;-70
2024/01/18 00:58:11;;;;;;;28.75;15.27;;;;;;;-0.71;100.00;99231.97;4836262;29;20025;-70
2024/01/18 01:00:37;;;;;;;27.08;14.65;;;;;;;-0.71;100.00;99234.63;4846520;29;20495;-70
2024/01/18 01:03:02;;;;;;;27.90;15.18;;;;;;;-0.69;100.00;99238.97;4854072;29;20142;-70
2024/01/18 01:05:27;;;;;;;29.60;14.30;;;;;;;-0.69;100.00;99231.91;4838311;29;20120;-70
2024/01/18 01:07:53;;;;;;;29.02;15.23;;;;;;;-0.70;100.00;99230.22;4851644;29;20494;-70
2024/01/18 01:10:18;;;;;;;29.25;14.52;;;;;;;-0.71;100.00;99239.88;4851547;29;20784;-71
2024/01/18 01:12:43;;;;;;;39.47;13.25;;;;;;;-0.73;100.00;99243.56;4851157;29;20045;-70
2024/01/18 01:15:09;;;;;;;28.38;13.48;;;;;;;-0.75;100.00;99242.78;4838353;29;20040;-71
2024/01/18 01:17:34;;;;;;;28.70;13.93;;;;;;;-0.78;100.00;99243.78;4851338;29;20521;-70
2024/01/18 01:19:59;;;;;;;27.90;12.10;;;;;;;-0.80;100.00;99239.53;4835660;29;20060;-70
2024/01/18 01:22:25;;;;;;;28.85;13.88;;;;;;;-0.79;100.00;99242.09;4850105;29;20229;-70
2024/01/18 01:24:50;;;;;;;28.85;14.10;;;;;;;-0.79;100.00;99252.66;4850876;29;20022;-73
2024/01/18 01:27:15;;;;;;;27.35;13.55;;;;;;;-0.81;100.00;99257.13;4851795;29;20036;-72
2024/01/18 01:29:40;;;;;;;27.83;12.70;;;;;;;-0.82;100.00;99247.53;4847747;29;20063;-72
2024/01/18 01:32:06;;;;;;;27.00;14.13;;;;;;;-0.84;100.00;99249.38;4853239;29;20034;-72
2024/01/18 01:34:31;;;;;;;27.52;14.38;;;;;;;-0.87;100.00;99260.09;4836101;29;20076;-72
2024/01/18 01:36:56;;;;;;;28.05;14.48;;;;;;;-0.88;100.00;99255.75;4832160;29;20391;-72
2024/01/18 01:39:21;;;;;;;32.55;14.85;;;;;;;-0.91;100.00;99263.81;4848731;29;20037;-73
2024/01/18 01:41:47;;;;;;;29.88;14.55;;;;;;;-0.94;100.00;99269.25;4848377;29;20470;-73
2024/01/18 01:44:12;;;;;;;28.15;12.82;;;;;;;-0.96;100.00;99276.41;4851658;29;20647;-72
2024/01/18 01:46:37;;;;;;;27.48;13.65;;;;;;;-0.98;100.00;99275.59;4851236;29;20407;-72
2024/01/18 01:49:05;;;;;;;29.33;14.48;;;;;;;-1.00;100.00;99280.13;4853470;29;20112;-73
2024/01/18 01:51:34;;;;;;;31.50;13.35;;;;;;;-1.03;100.00;99277.66;4850534;29;20098;-72
2024/01/18 01:54:02;;;;;;;29.58;14.48;;;;;;;-1.04;100.00;99278.56;4850341;29;20140;-73
2024/01/18 01:56:27;;;;;;;29.38;14.35;;;;;;;-1.04;100.00;99278.56;4834861;29;20477;-72
2024/01/18 01:58:53;;;;;;;29.35;13.30;;;;;;;-1.05;100.00;99277.72;4851624;29;20033;-73
2024/01/18 02:01:18;;;;;;;31.27;16.38;;;;;;;-1.02;100.00;99276.72;4851353;29;20029;-73
2024/01/18 02:03:44;;;;;;;27.33;13.65;;;;;;;-1.01;100.00;99286.31;4836544;29;20030;-72
2024/01/18 02:06:09;;;;;;;29.77;15.02;;;;;;;-1.02;100.00;99280.19;4846050;29;20025;-73
2024/01/18 02:08:35;;;;;;;29.35;14.00;;;;;;;-1.02;100.00;99282.00;4850753;29;20085;-73
2024/01/18 02:11:03;;;;;;;30.35;14.70;;;;;;;-1.02;100.00;99279.38;4839838;29;20049;-72
2024/01/18 02:13:29;;;;;;;26.77;13.80;;;;;;;-1.03;100.00;99281.13;4847631;29;20706;-73
2024/01/18 02:15:55;;;;;;;30.02;13.63;;;;;;;-1.01;100.00;99273.13;4835306;29;20125;-72
2024/01/18 02:18:20;;;;;;;30.52;14.63;;;;;;;-0.99;100.00;99274.78;4850352;29;20041;-72
2024/01/18 02:20:46;;;;;;;30.58;15.20;;;;;;;-0.97;100.00;99280.81;4839087;29;20172;-72
2024/01/18 02:23:11;;;;;;;28.70;14.38;;;;;;;-0.98;100.00;99273.84;4850280;29;20034;-72
2024/01/18 02:25:37;;;;;;;29.23;13.32;;;;;;;-0.99;100.00;99277.41;4841161;29;20390;-72
2024/01/18 02:28:03;;;;;;;28.13;13.55;;;;;;;-0.98;100.00;99275.59;4844312;29;20034;-73
2024/01/18 02:30:28;;;;;;;27.67;14.52;;;;;;;-1.01;100.00;99273.13;4854188;29;20030;-73
2024/01/18 02:32:53;;;;;;;27.27;13.30;;;;;;;-1.02;100.00;99277.56;4852143;29;20071;-73
2024/01/18 02:35:19;;;;;;;28.58;14.40;;;;;;;-1.00;100.00;99285.41;4849797;29;20391;-72
2024/01/18 02:37:44;;;;;;;27.80;13.82;;;;;;;-1.03;100.00;99286.41;4855853;29;20121;-73
2024/01/18 02:40:10;;;;;;;28.05;13.57;;;;;;;-1.06;100.00;99290.03;4838462;29;20057;-73
2024/01/18 02:42:35;;;;;;;28.35;13.25;;;;;;;-1.02;100.00;99284.63;4851537;29;20045;-72
2024/01/18 02:45:04;;;;;;;29.27;14.52;;;;;;;-1.07;100.00;99287.47;4840995;29;20032;-73
2024/01/18 02:47:30;;;;;;;28.55;14.10;;;;;;;-1.09;100.00;99287.56;4855140;29;20041;-72
2024/01/18 02:49:56;;;;;;;29.42;13.88;;;;;;;-1.09;100.00;99295.47;4853649;29;20147;-73
2024/01/18 02:52:24;;;;;;;32.22;14.60;;;;;;;-1.09;100.00;99292.00;4836262;29;20121;-73
2024/01/18 02:54:49;;;;;;;27.75;13.73;;;;;;;-1.10;100.00;99292.91;4850793;29;20038;-73
2024/01/18 02:57:14;;;;;;;29.67;14.85;;;;;;;-1.13;100.00;99296.56;4856271;29;20081;-72
2024/01/18 02:59:40;;;;;;;25.83;13.10;;;;;;;-1.12;100.00;99292.16;4834931;29;20105;-72
2024/01/18 03:02:05;;;;;;;29.85;14.95;;;;;;;-1.11;100.00;99299.97;4836780;29;20030;-72
2024/01/18 03:04:31;;;;;;;28.23;13.45;;;;;;;-1.14;100.00;99305.41;4851270;29;20030;-73
2024/01/18 03:06:56;;;;;;;27.30;14.40;;;;;;;-1.14;100.00;99302.78;4841506;29;20567;-73
2024/01/18 03:09:22;;;;;;;29.00;14.90;;;;;;;-1.13;100.00;99300.97;4839025;29;20037;-72
2024/01/18 03:11:47;;;;;;;31.45;15.70;;;;;;;-1.17;100.00;99300.28;4854184;29;20076;-73
2024/01/18 03:14:12;;;;;;;29.33;13.93;;;;;;;-1.18;100.00;99306.47;4850335;29;20029;-73
2024/01/18 03:16:42;;;;;;;31.75;14.65;;;;;;;-1.20;100.00;99302.22;4851621;29;20038;-72
2024/01/18 03:19:11;;;;;;;;;;;;;;;-1.12;100.00;99306.16;4837162;29;20397;-73
2024/01/18 03:21:36;;;;;;;30.67;14.02;;;;;;;-1.20;100.00;99313.63;4833004;29;19924;-72
2024/01/18 03:24:02;;;;;;;30.00;14.20;;;;;;;-1.20;100.00;99311.00;4852188;29;20041;-72
2024/01/18 03:26:27;;;;;;;29.63;15.80;;;;;;;-1.25;100.00;99303.28;4841356;29;20435;-73
2024/01/18 03:28:52;;;;;;;28.40;14.13;;;;;;;-1.28;100.00;99305.22;4840283;29;20026;-72
2024/01/18 03:31:18;;;;;;;28.45;14.55;;;;;;;-1.28;100.00;99310.50;4856580;29;20020;-73
2024/01/18 03:33:43;;;;;;;28.77;14.23;;;;;;;-1.31;100.00;99315.94;4852162;29;20124;-72
2024/01/18 03:36:10;;;;;;;29.80;14.13;;;;;;;-1.32;100.00;99324.75;4851523;29;20037;-73
2024/01/18 03:38:35;;;;;;;28.67;13.60;;;;;;;-1.34;100.00;99314.28;4853777;29;20026;-73
2024/01/18 03:41:01;;;;;;;27.65;14.95;;;;;;;-1.34;100.00;99310.81;4841011;29;20037;-72
2024/01/18 03:43:26;;;;;;;28.52;14.43;;;;;;;-1.37;100.00;99313.59;4851487;29;20025;-73
2024/01/18 03:45:51;;;;;;;28.63;14.68;;;;;;;-1.40;100.00;99319.88;4837971;29;20462;-75
2024/01/18 03:48:16;;;;;;;27.85;12.90;;;;;;;-1.39;100.00;99325.97;4853321;29;20502;-74
2024/01/18 03:50:42;;;;;;;27.60;14.00;;;;;;;-1.39;100.00;99325.97;4849597;29;20060;-74
2024/01/18 03:53:07;;;;;;;36.40;13.85;;;;;;;-1.39;100.00;99331.25;4839683;29;20366;-75
2024/01/18 03:55:32;;;;;;;27.55;14.48;;;;;;;-1.39;100.00;99341.78;4853509;29;20066;-75
2024/01/18 03:57:58;;;;;;;31.88;14.98;;;;;;;-1.42;100.00;99345.41;4840111;29;20101;-75
2024/01/18 04:00:23;;;;;;;32.45;15.95;;;;;;;-1.44;100.00;99339.38;4855319;29;20073;-75
2024/01/18 04:02:48;;;;;;;29.77;14.65;;;;;;;-1.46;100.00;99347.38;4855432;29;20087;-75
2024/01/18 04:05:14;;;;;;;29.55;14.43;;;;;;;-1.49;100.00;99342.25;4855793;29;20136;-73
2024/01/18 04:07:39;;;;;;;28.35;14.25;;;;;;;-1.52;100.00;99345.03;4850156;29;20052;-75
2024/01/18 04:10:07;;;;;;;29.92;14.98;;;;;;;-1.58;100.00;99337.44;4839516;29;20025;-75
2024/01/18 04:12:33;;;;;;;26.83;12.70;;;;;;;-1.61;100.00;99348.06;4850877;29;20048;-75
2024/01/18 04:14:58;;;;;;;25.63;12.73;;;;;;;-1.66;100.00;99342.19;4831520;29;20037;-74
2024/01/18 04:17:23;;;;;;;26.05;13.30;;;;;;;-1.62;100.00;99343.75;4852681;29;20039;-73
2024/01/18 04:19:49;;;;;;;34.17;13.30;;;;;;;-1.67;100.00;99351.00;4851787;29;20417;-75
2024/01/18 04:22:14;;;;;;;25.33;13.00;;;;;;;-1.72;100.00;99348.59;4837651;29;20056;-75
2024/01/18 04:24:39;;;;;;;25.05;11.95;;;;;;;-1.74;100.00;99350.47;4853506;29;20024;-75
2024/01/18 04:27:05;;;;;;;26.42;12.73;;;;;;;-1.78;100.00;99356.78;4851070;29;20048;-75
2024/01/18 04:29:30;;;;;;;28.60;13.15;;;;;;;-1.83;100.00;99354.38;4849919;29;20109;-75
2024/01/18 04:31:55;;;;;;;25.42;12.27;;;;;;;-1.85;100.00;99363.25;4838934;29;20481;-75
2024/01/18 04:34:20;;;;;;;31.60;12.50;;;;;;;-1.89;100.00;99365.16;4839162;29;20042;-75
2024/01/18 04:36:46;;;;;;;27.20;12.27;;;;;;;-1.92;100.00;99364.47;4840133;29;20895;-75
2024/01/18 04:39:11;;;;;;;25.77;11.95;;;;;;;-1.97;100.00;99369.94;4850497;29;20037;-74
2024/01/18 04:41:36;;;;;;;27.60;12.35;;;;;;;-2.01;100.00;99379.75;4837462;29;20025;-75
2024/01/18 04:44:02;;;;;;;27.55;12.50;;;;;;;-2.01;100.00;99368.38;4839187;29;20041;-74
2024/01/18 04:46:28;;;;;;;24.05;11.23;;;;;;;-2.05;100.00;99379.97;4839793;29;20395;-75
2024/01/18 04:48:53;;;;;;;26.65;12.70;;;;;;;-2.12;100.00;99389.94;4835581;29;20029;-74
2024/01/18 04:51:20;;;;;;;25.95;11.57;;;;;;;-2.14;100.00;99392.63;4848657;29;20484;-73
2024/01/18 04:53:45;;;;;;;25.13;12.10;;;;;;;-2.16;100.00;99397.09;4835422;29;20050;-74
2024/01/18 04:56:10;;;;;;;27.60;13.25;;;;;;;-2.21;100.00;99404.34;4852217;29;20490;-73
2024/01/18 04:58:36;;;;;;;25.08;10.82;;;;;;;-2.22;100.00;99412.31;4853927;29;20030;-72
2024/01/18 05:01:01;;;;;;;27.88;13.38;;;;;;;-2.26;100.00;99413.38;4839144;29;20403;-72
2024/01/18 05:03:27;;;;;;;25.08;11.77;;;;;;;-2.26;100.00;99423.91;4851341;29;20036;-72
2024/01/18 05:05:53;;;;;;;26.90;12.43;;;;;;;-2.32;100.00;99419.75;4852796;29;20033;-73
2024/01/18 05:08:18;;;;;;;26.73;11.68;;;;;;;-2.38;100.00;99415.59;4855974;29;20483;-72
2024/01/18 05:10:43;;;;;;;28.00;12.13;;;;;;;-2.48;100.00;99428.28;4852736;29;20093;-72
2024/01/18 05:13:09;;;;;;;26.65;12.45;;;;;;;-2.51;100.00;99424.94;4831582;29;20066;-73
2024/01/18 05:15:34;;;;;;;24.85;11.80;;;;;;;-2.54;100.00;99418.03;4838799;29;20112;-73
2024/01/18 05:18:01;;;;;;;27.80;12.23;;;;;;;-2.60;100.00;99423.56;4850806;29;20037;-72
2024/01/18 05:20:26;;;;;;;29.90;10.73;;;;;;;-2.66;100.00;99424.66;4832699;29;20030;-73
2024/01/18 05:22:51;;;;;;;26.38;11.45;;;;;;;-2.70;100.00;99424.84;4848395;29;20034;-72
2024/01/18 05:25:17;;;;;;;25.02;11.38;;;;;;;-2.70;100.00;99420.44;4851122;29;20037;-73
2024/01/18 05:27:42;;;;;;;23.63;11.30;;;;;;;-2.68;100.00;99428.28;4834336;29;20037;-73
2024/01/18 05:30:08;;;;;;;24.77;10.13;;;;;;;-2.74;100.00;99428.53;4850966;29;20498;-72
2024/01/18 05:32:34;;;;;;;26.65;12.07;;;;;;;-2.76;100.00;99436.47;4837308;29;20522;-72
2024/01/18 05:35:01;;;;;;;26.67;12.65;;;;;;;-2.77;100.00;99433.91;4837393;29;20105;-72
2024/01/18 05:37:26;;;;;;;27.23;11.52;;;;;;;-2.79;100.00;99435.78;4848345;29;20265;-72
2024/01/18 05:39:53;;;;;;;28.67;12.63;;;;;;;-2.82;100.00;99450.72;4852562;29;20510;-73
2024/01/18 05:42:22;;;;;;;23.73;10.48;;;;;;;-2.84;100.00;99454.34;4848094;29;20030;-73
2024/01/18 05:44:48;;;;;;;27.13;11.80;;;;;;;-2.90;100.00;99455.47;4839539;29;20025;-72
2024/01/18 05:47:13;;;;;;;25.80;10.65;;;;;;;-2.94;100.00;99459.13;4845808;29;20089;-72
2024/01/18 05:49:39;;;;;;;22.48;10.30;;;;;;;-3.01;100.00;99460.28;4841985;29;20089;-72
2024/01/18 05:52:05;;;;;;;20.90;10.23;;;;;;;-3.07;100.00;99466.66;4849118;29;20525;-72
2024/01/18 05:54:30;;;;;;;25.55;10.82;;;;;;;-3.09;100.00;99459.72;4841252;29;20257;-72
2024/01/18 05:56:56;;;;;;;37.38;10.68;;;;;;;-3.12;100.00;99471.22;4857625;29;20509;-72
2024/01/18 05:59:21;;;;;;;24.35;10.20;;;;;;;-3.18;100.00;99474.97;4853420;29;20036;-72
2024/01/18 06:01:46;;;;;;;23.23;10.82;;;;;;;-3.21;100.00;99472.44;4857783;29;20052;-72
2024/01/18 06:04:12;;;;;;;26.98;10.27;;;;;;;-3.23;100.00;99483.94;4854767;29;20338;-73
2024/01/18 06:06:37;;;;;;;24.00;9.85;;;;;;;-3.22;100.00;99486.50;4853755;29;20052;-74
2024/01/18 06:09:02;;;;;;;24.58;11.02;;;;;;;-3.18;100.00;99484.59;4840464;29;20033;-74
2024/01/18 06:11:28;;;;;;;25.77;10.75;;;;;;;-3.20;100.00;99489.06;4860718;29;20053;-74
2024/01/18 06:13:53;;;;;;;24.52;10.50;;;;;;;-3.25;100.00;99489.25;4854554;29;20037;-73
2024/01/18 06:16:19;;;;;;;21.60;10.10;;;;;;;-3.27;100.00;99492.84;4854608;29;20064;-74
2024/01/18 06:18:45;;;;;;;26.52;11.60;;;;;;;-3.28;100.00;99505.13;4854566;29;20097;-74
2024/01/18 06:21:10;;;;;;;23.05;9.68;;;;;;;-3.31;100.00;99502.59;4857518;29;20029;-74
2024/01/18 06:23:36;;;;;;;23.92;10.35;;;;;;;-3.33;100.00;99509.69;4854056;29;20435;-74
2024/01/18 06:26:02;;;;;;;24.00;10.40;;;;;;;-3.39;100.00;99510.78;4851683;29;20053;-74
2024/01/18 06:28:28;;;;;;;22.05;9.77;;;;;;;-3.43;100.00;99513.56;4854446;29;20053;-73
2024/01/18 06:30:54;;;;;;;25.17;10.15;;;;;;;-3.43;100.00;99530.19;4856237;29;20498;-74
2024/01/18 06:33:19;;;;;;;26.98;10.50;;;;;;;-3.43;100.00;99522.31;4853010;29;20490;-74
2024/01/18 06:35:44;;;;;;;26.85;10.80;;;;;;;-3.43;100.00;99531.97;4837172;29;20069;-74
2024/01/18 06:38:10;;;;;;;24.75;9.23;;;;;;;-3.47;100.00;99527.72;4852232;29;20103;-74
2024/01/18 06:40:35;;;;;;;22.63;9.57;;;;;;;-3.49;100.00;99529.56;4835027;29;20022;-74
2024/01/18 06:43:00;;;;;;;25.08;9.27;;;;;;;-3.50;100.00;99536.56;4852014;29;20164;-74
2024/01/18 06:45:26;;;;;;;25.25;9.60;;;;;;;-3.49;100.00;99532.19;4850558;29;20173;-74
2024/01/18 06:47:51;;;;;;;26.35;9.80;;;;;;;-3.52;100.00;99541.88;4852968;29;20036;-74
2024/01/18 06:50:17;;;;;;;25.17;9.93;;;;;;;-3.57;99.80;99543.00;4848581;29;20061;-73
2024/01/18 06:52:42;;;;;;;24.80;9.90;;;;;;;-3.57;100.00;99543.84;4857624;29;20081;-74
2024/01/18 06:55:10;;;;;;;24.05;9.88;;;;;;;-3.60;99.51;99554.47;4840710;29;20029;-74
2024/01/18 06:57:36;;;;;;;28.63;10.02;;;;;;;-3.60;99.86;99553.59;4858388;29;20041;-74
2024/01/18 07:00:02;;;;;;;22.73;9.10;;;;;;;-3.64;100.00;99552.00;4842522;29;20038;-74
2024/01/18 07:02:28;;;;;;;23.52;9.60;;;;;;;-3.69;99.69;99554.75;4851294;29;20401;-74
2024/01/18 07:04:53;;;;;;;22.42;9.88;;;;;;;-3.71;100.00;99561.84;4854588;29;20026;-73
2024/01/18 07:07:20;;;;;;;24.98;10.00;;;;;;;-3.72;100.00;99565.38;4856533;29;20026;-74
2024/01/18 07:09:45;;;;;;;20.63;8.43;;;;;;;-3.73;100.00;99563.69;4848815;29;20040;-74
2024/01/18 07:12:10;;;;;;;25.75;10.73;;;;;;;-3.73;99.96;99568.94;4850279;29;20037;-74
2024/01/18 07:14:36;;;;;;;24.45;10.10;;;;;;;-3.74;100.00;99575.09;4850681;29;20089;-72
2024/01/18 07:17:01;;;;;;;22.70;9.50;;;;;;;-3.73;99.95;99577.66;4851406;29;20037;-71
2024/01/18 07:19:27;;;;;;;22.60;8.68;;;;;;;-3.73;99.45;99582.06;4853861;29;20029;-70
2024/01/18 07:21:53;;;;;;;24.17;10.30;;;;;;;-3.75;99.10;99582.13;4852853;29;20052;-70
2024/01/18 07:24:19;;;;;;;26.08;11.60;;;;;;;-3.78;99.64;99591.84;4837651;29;20513;-69
2024/01/18 07:26:44;;;;;;;25.08;8.85;;;;;;;-3.81;99.47;99586.72;4837034;29;20133;-70
2024/01/18 07:29:09;;;;;;;24.88;9.48;;;;;;;-3.86;99.47;99594.75;4852295;29;20078;-69
2024/01/18 07:31:34;;;;;;;23.95;10.93;;;;;;;-3.87;99.41;99598.28;4849875;29;20093;-69
2024/01/18 07:34:00;;;;;;;23.77;10.82;;;;;;;-3.90;99.47;99604.47;4849887;29;20049;-70
2024/01/18 07:36:25;;;;;;;21.52;8.05;;;;;;;-3.90;99.50;99611.50;4841478;29;20449;-72
2024/01/18 07:38:50;;;;;;;25.52;9.00;;;;;;;-3.90;99.80;99609.72;4852890;29;20258;-70
2024/01/18 07:41:15;;;;;;;26.35;10.98;;;;;;;-3.88;100.00;99615.81;4849880;29;20128;-69
2024/01/18 07:43:41;;;;;;;24.02;9.73;;;;;;;-3.84;99.76;99620.94;4849632;29;20038;-70
2024/01/18 07:46:06;;;;;;;24.15;9.95;;;;;;;-3.87;98.79;99628.00;4836640;29;20116;-69
2024/01/18 07:48:32;;;;;;;31.60;10.43;;;;;;;-3.90;98.87;99627.25;4834285;29;20033;-70
2024/01/18 07:50:57;;;;;;;27.83;10.13;;;;;;;-3.90;99.07;99635.97;4850325;29;20053;-70
2024/01/18 07:53:23;;;;;;;23.70;9.98;;;;;;;-3.88;100.00;99644.69;4844506;29;20124;-69
2024/01/18 07:55:48;;;;;;;22.88;9.27;;;;;;;-3.86;100.00;99637.59;4855807;29;20564;-70
2024/01/18 07:58:14;;;;;;;25.55;9.68;;;;;;;-3.83;100.00;99641.06;4844816;29;20153;-69
2024/01/18 08:00:39;;;;;;;22.13;10.07;;;;;;;-3.88;99.23;99652.56;4854047;29;20086;-69
2024/01/18 08:03:04;;;;;;;24.45;10.23;;;;;;;-3.85;99.77;99659.47;4851620;29;20048;-69
2024/01/18 08:05:30;;;;;;;29.73;12.40;;;;;;;-3.82;100.00;99663.75;4852004;29;20082;-69
2024/01/18 08:07:55;;;;;;;25.48;11.40;;;;;;;-3.80;100.00;99670.66;4851660;29;20105;-69
2024/01/18 08:10:20;;;;;;;22.35;8.90;;;;;;;-3.74;99.87;99674.84;4837026;29;20029;-72
2024/01/18 08:12:47;;;;;;;23.45;9.63;;;;;;;-3.75;99.83;99667.88;4848180;29;20208;-69
2024/01/18 08:15:13;;;;;;;24.42;10.23;;;;;;;-3.74;99.56;99672.22;4832717;29;20631;-69
2024/01/18 08:17:38;;;;;;;26.15;10.35;;;;;;;-3.75;99.42;99679.25;4846733;29;20040;-68
2024/01/18 08:20:04;;;;;;;30.77;11.07;;;;;;;-3.76;99.93;99676.69;4848644;29;20065;-69
2024/01/18 08:22:30;;;;;;;24.30;10.77;;;;;;;-3.73;99.96;99682.69;4835137;29;20032;-68
2024/01/18 08:24:56;;;;;;;26.15;10.80;;;;;;;-3.74;99.71;99690.63;4849652;29;20425;-71
2024/01/18 08:27:23;;;;;;;28.25;11.90;;;;;;;-3.70;100.00;99692.22;4834492;29;20493;-68
2024/01/18 08:29:49;;;;;;;35.88;12.85;;;;;;;-3.70;100.00;99692.22;4835067;29;20374;-68
2024/01/18 08:32:14;;;;;;;24.73;11.45;;;;;;;-3.62;100.00;99698.06;4851965;29;20037;-68
2024/01/18 08:34:40;;;;;;;25.50;9.82;;;;;;;-3.55;100.00;99710.09;4852857;29;20136;-71
2024/01/18 08:37:05;;;;;;;23.05;10.48;;;;;;;-3.48;100.00;99702.00;4851771;29;20367;-71
2024/01/18 08:39:30;;;;;;;27.95;12.20;;;;;;;-3.43;100.00;99713.22;4850645;29;20241;-71
2024/01/18 08:41:59;;;;;;;25.35;10.98;;;;;;;-3.37;100.00;99713.00;4849456;29;20052;-71
2024/01/18 08:44:24;;;;;;;23.75;10.00;;;;;;;-3.31;100.00;99717.19;4836215;29;20372;-72
2024/01/18 08:46:50;;;;;;;23.77;10.40;;;;;;;-3.23;100.00;99723.03;4847484;29;20029;-71
2024/01/18 08:49:16;;;;;;;22.10;8.98;;;;;;;-3.18;100.00;99721.09;4836188;29;20694;-71
2024/01/18 08:51:41;;;;;;;24.70;10.32;;;;;;;-3.10;100.00;99721.69;4852167;29;20032;-72
2024/01/18 08:54:07;;;;;;;25.65;10.77;;;;;;;-3.02;100.00;99726.69;4852347;29;20041;-72
2024/01/18 08:56:35;;;;;;;25.70;10.95;;;;;;;-2.95;100.00;99725.56;4855632;29;20048;-71
2024/01/18 08:59:00;;;;;;;22.85;9.40;;;;;;;-2.89;100.00;99735.84;4855942;29;20037;-71
2024/01/18 09:01:25;;;;;;;35.75;12.35;;;;;;;-2.83;100.00;99743.50;4842771;29;20055;-71
2024/01/18 09:03:53;;;;;;;25.13;9.70;;;;;;;-2.77;100.00;99752.94;4838507;29;20025;-71
2024/01/18 09:06:18;;;;;;;25.00;10.68;;;;;;;-2.73;100.00;99758.97;4855084;29;20108;-71
2024/01/18 09:08:44;;;;;;;26.73;11.20;;;;;;;-2.68;100.00;99759.63;4857111;29;20109;-71
2024/01/18 09:11:09;;;;;;;24.38;10.95;;;;;;;-2.63;100.00;99758.56;4843666;29;20581;-72
2024/01/18 09:13:34;;;;;;;24.38;10.88;;;;;;;-2.54;100.00;99761.78;4859066;29;20059;-71
2024/01/18 09:16:00;;;;;;;25.55;10.45;;;;;;;-2.49;100.00;99765.97;4844062;29;20375;-71
2024/01/18 09:18:25;;;;;;;24.17;10.77;;;;;;;-2.41;100.00;99767.47;4854165;29;20093;-71
2024/01/18 09:20:50;;;;;;;22.30;9.73;;;;;;;-2.33;100.00;99775.91;4855809;29;20378;-71
2024/01/18 09:23:16;;;;;;;23.52;9.43;;;;;;;-2.27;100.00;99778.28;4846640;29;20037;-71
2024/01/18 09:25:42;;;;;;;20.88;8.50;;;;;;;-2.16;100.00;99780.53;4851309;29;20037;-72
2024/01/18 09:28:10;;;;;;;22.10;8.73;;;;;;;-2.08;100.00;99790.78;4829716;29;20040;-72
2024/01/18 09:30:36;;;;;;;23.08;7.93;;;;;;;-1.99;100.00;99796.56;4853086;29;20620;-71
2024/01/18 09:33:02;;;;;;;23.67;8.85;;;;;;;-1.89;100.00;99802.28;4836494;29;20688;-72
2024/01/18 09:35:28;;;;;;;23.52;8.95;;;;;;;-1.81;100.00;99800.22;4850436;29;20029;-72
2024/01/18 09:37:53;;;;;;;21.65;8.52;;;;;;;-1.74;100.00;99810.53;4849008;29;20037;-72
2024/01/18 09:40:19;;;;;;;18.05;7.65;;;;;;;-1.66;100.00;99813.72;4835747;29;20493;-72
2024/01/18 09:42:47;;;;;;;23.40;9.20;;;;;;;-1.60;100.00;99824.00;4851378;29;20372;-72
2024/01/18 09:45:14;;;;;;;17.58;7.43;;;;;;;-1.52;100.00;99826.34;4851944;29;20033;-72
2024/01/18 09:47:43;;;;;;;20.80;7.53;;;;;;;-1.48;100.00;99830.56;4854265;29;20052;-72
2024/01/18 09:50:09;;;;;;;21.83;8.32;;;;;;;-1.39;100.00;99837.25;4842156;29;20057;-72
2024/01/18 09:52:35;;;;;;;19.40;7.47;;;;;;;-1.34;100.00;99841.41;4855469;29;20037;-71
2024/01/18 09:55:00;;;;;;;19.52;7.28;;;;;;;-1.27;100.00;99848.16;4856593;29;20041;-71
2024/01/18 09:57:32;;;;;;;21.10;7.53;;;;;;;-1.20;100.00;99850.53;4834173;29;20026;-71
2024/01/18 10:00:00;;;;;;;16.02;5.70;;;;;;;-1.15;100.00;99852.06;4852275;29;20057;-71
2024/01/18 10:02:26;;;;;;;25.45;6.82;;;;;;;-1.08;100.00;99858.81;4852732;29;20095;-72
2024/01/18 10:04:55;;;;;;;21.83;6.88;;;;;;;-1.01;100.00;99871.75;4852523;29;20029;-72
2024/01/18 10:07:20;;;;;;;24.52;7.35;;;;;;;-0.94;100.00;99873.19;4847713;29;20518;-71
2024/01/18 10:09:46;;;;;;;20.73;6.40;;;;;;;-0.89;100.00;99873.88;4843965;29;20030;-72
2024/01/18 10:12:11;;;;;;;19.80;6.95;;;;;;;-0.83;100.00;99878.91;4854172;29;20053;-71
2024/01/18 10:14:41;;;;;;;18.77;5.55;;;;;;;-0.76;100.00;99888.28;4851381;29;20102;-71
2024/01/18 10:17:07;;;;;;;19.98;6.38;;;;;;;-0.68;100.00;99892.38;4839138;29;20065;-71
2024/01/18 10:19:32;;;;;;;17.42;5.72;;;;;;;-0.64;100.00;99900.09;4833858;29;20038;-71
2024/01/18 10:21:58;;;;;;;17.58;5.45;;;;;;;-0.59;100.00;99897.25;4837134;29;20033;-72
2024/01/18 10:24:23;;;;;;;13.68;4.80;;;;;;;-0.52;100.00;99900.50;4850807;29;20041;-71
2024/01/18 10:27:01;;;;;;;19.33;5.22;;;;;;;-0.43;100.00;99905.38;4851332;29;20040;-71
2024/01/18 10:29:26;;;;;;;17.27;6.32;;;;;;;-0.41;100.00;99911.44;4851802;29;20597;-71
2024/01/18 10:31:52;;;;;;;19.13;6.03;;;;;;;-0.36;100.00;99917.38;4838615;29;20136;-71
2024/01/18 10:34:17;;;;;;;14.15;4.63;;;;;;;-0.30;100.00;99922.41;4850395;29;20396;-71
2024/01/18 10:36:42;;;;;;;18.70;6.53;;;;;;;-0.24;100.00;99924.75;4840549;29;20041;-71
2024/01/18 10:39:18;;;;;;;14.82;4.82;;;;;;;-0.17;100.00;99922.72;4848399;29;20029;-71
2024/01/18 10:41:45;;;;;;;16.90;5.10;;;;;;;-0.12;100.00;99930.44;4855549;29;20064;-71
2024/01/18 10:44:14;;;;;;;16.55;5.38;;;;;;;-0.08;100.00;99930.22;4839992;29;20034;-71
2024/01/18 10:46:40;;;;;;;18.00;5.25;;;;;;;0.00;100.00;99927.28;4838660;29;20041;-71
2024/01/18 10:49:06;;;;;;;16.90;5.30;;;;;;;0.04;100.00;99918.25;4854605;29;20078;-71
2024/01/18 10:51:32;;;;;;;20.60;5.88;;;;;;;0.09;100.00;99924.22;4844275;29;20463;-71
2024/01/18 10:53:58;;;;;;;17.08;6.15;;;;;;;0.15;100.00;99936.28;4854371;29;20177;-72
2024/01/18 10:56:24;;;;;;;19.08;5.57;;;;;;;0.20;100.00;99939.56;4862673;29;20108;-71
2024/01/18 10:58:49;;;;;;;18.17;5.72;;;;;;;0.25;100.00;99934.94;4855734;29;20116;-71
2024/01/18 11:01:17;;;;;;;15.88;5.43;;;;;;;0.31;99.65;99939.94;4860464;29;20082;-71
2024/01/18 11:03:43;;;;;;;18.73;5.97;;;;;;;0.37;100.00;99938.81;4860854;29;20022;-71
2024/01/18 11:06:12;;;;;;;17.00;6.05;;;;;;;0.46;99.45;99951.59;4853899;29;20343;-72